Time;durP1;ratioP1;P1;durP2;ratioP2;P2;SDS_P1;SDS_P2;PMS_P1;PMS_P2;Temp;Humidity;BMP_temperature;BMP_pressure;BME280_temperature;BME280_humidity;BME280_pressure;Samples;Min_cycle;Max_cycle;Signal;HPM_P1;HPM_P2
2022/12/15 00:38:44;;;;;;;46.30;28.67;;;;;;;4.47;100.00;98735.13;5071050;28;20211;-63
2022/12/15 00:41:12;;;;;;;46.73;28.77;;;;;;;4.41;100.00;98724.94;5071379;28;20676;-62
2022/12/15 00:43:39;;;;;;;49.67;28.93;;;;;;;4.46;100.00;98718.00;5071090;28;20208;-56
2022/12/15 00:48:52;;;;;;;44.00;26.50;;;;;;;4.53;100.00;98723.88;5071181;28;20199;-56
2022/12/15 00:51:19;;;;;;;46.27;27.90;;;;;;;4.45;100.00;98749.72;5070673;28;20285;-56
2022/12/15 01:21:19;;;;;;;42.63;27.07;;;;;;;4.82;100.00;98690.81;5070512;28;20195;-57
2022/12/15 01:23:46;;;;;;;45.93;27.33;;;;;;;4.78;100.00;98696.88;5070241;28;20203;-57
2022/12/15 01:26:13;;;;;;;46.57;28.17;;;;;;;4.73;100.00;98678.97;5070422;28;20206;-56
2022/12/15 01:28:40;;;;;;;49.13;29.43;;;;;;;4.63;100.00;98664.56;5069825;28;20205;-57
2022/12/15 01:31:11;;;;;;;45.43;27.73;;;;;;;4.66;100.00;98699.66;5070154;28;20244;-56
2022/12/15 01:33:41;;;;;;;47.70;29.60;;;;;;;4.75;100.00;98713.19;5069732;28;20672;-56
2022/12/15 01:36:09;;;;;;;47.10;28.00;;;;;;;4.73;100.00;98703.84;5070201;28;20210;-56
2022/12/15 01:38:38;;;;;;;49.30;29.30;;;;;;;4.76;100.00;98698.63;5069776;28;20207;-56
2022/12/15 01:41:06;;;;;;;47.93;29.83;;;;;;;4.57;100.00;98677.56;5070271;28;20211;-56
2022/12/15 01:43:35;;;;;;;52.63;31.93;;;;;;;4.66;100.00;98704.81;5070200;28;20261;-56
2022/12/15 01:46:05;;;;;;;48.70;29.10;;;;;;;4.55;100.00;98696.44;5070162;28;20196;-56
2022/12/15 01:48:39;;;;;;;47.37;29.93;;;;;;;4.49;100.00;98696.56;5070002;28;20196;-63
2022/12/15 01:51:15;;;;;;;50.00;30.10;;;;;;;4.53;100.00;98704.16;5070086;28;20216;-63
2022/12/15 01:53:50;;;;;;;44.80;27.83;;;;;;;4.45;100.00;98706.03;5069930;28;20192;-56
2022/12/15 01:56:18;;;;;;;49.13;29.07;;;;;;;4.38;100.00;98701.88;5069816;28;20582;-56
2022/12/15 01:58:48;;;;;;;50.27;29.63;;;;;;;4.26;100.00;98692.66;5069622;28;20199;-63
2022/12/15 02:01:15;;;;;;;50.70;29.43;;;;;;;4.20;100.00;98703.03;5069927;28;20211;-62
2022/12/15 02:03:44;;;;;;;48.70;29.47;;;;;;;4.20;100.00;98721.00;5068638;28;20196;-57
2022/12/15 02:06:12;;;;;;;59.63;33.07;;;;;;;4.20;100.00;98736.41;5069764;28;20287;-56
2022/12/15 02:08:41;;;;;;;58.47;33.30;;;;;;;4.18;100.00;98735.56;5069343;28;20220;-58
2022/12/15 02:11:43;;;;;;;57.57;33.03;;;;;;;4.17;100.00;98715.09;5069674;28;20704;-58
2022/12/15 02:14:11;;;;;;;56.73;34.30;;;;;;;4.22;100.00;98757.78;5069521;28;20229;-57
2022/12/15 02:16:58;;;;;;;64.23;36.07;;;;;;;4.22;100.00;98756.94;5069531;28;20197;-58
2022/12/15 02:19:53;;;;;;;62.87;35.37;;;;;;;4.29;100.00;98756.81;5069390;28;20594;-57
2022/12/15 02:22:33;;;;;;;65.27;35.87;;;;;;;4.23;100.00;98751.78;5046718;28;20196;-57
2022/12/15 02:25:31;;;;;;;58.47;35.43;;;;;;;4.14;100.00;98751.94;5069476;28;20211;-58
2022/12/15 02:28:05;;;;;;;66.37;36.23;;;;;;;4.08;100.00;98756.28;5069286;28;20711;-57
2022/12/15 02:30:43;;;;;;;68.70;37.10;;;;;;;4.07;100.00;98765.72;5069210;28;20223;-63
2022/12/15 02:33:23;;;;;;;64.43;37.17;;;;;;;4.00;100.00;98758.97;5069488;28;20207;-63
2022/12/15 02:35:57;;;;;;;60.33;36.00;;;;;;;4.11;100.00;98751.97;5068982;28;20206;-63
2022/12/15 02:38:34;;;;;;;66.07;35.30;;;;;;;4.22;100.00;98741.53;5069213;28;20688;-62
2022/12/15 02:41:02;;;;;;;61.30;36.10;;;;;;;4.24;100.00;98745.78;5069498;28;20575;-63
2022/12/15 02:43:32;;;;;;;65.03;37.13;;;;;;;4.26;100.00;98762.00;5069263;28;20596;-58
2022/12/15 02:46:13;;;;;;;60.27;35.70;;;;;;;4.27;100.00;98779.13;5069260;28;20218;-62
2022/12/15 02:48:51;;;;;;;67.83;37.13;;;;;;;4.21;100.00;98793.75;5069076;28;20680;-57
2022/12/15 02:51:31;;;;;;;69.20;37.87;;;;;;;4.23;100.00;98785.16;5069452;28;20223;-56
2022/12/15 02:54:33;;;;;;;67.07;37.77;;;;;;;4.16;100.00;98772.44;5069299;28;20667;-56
2022/12/15 02:57:10;;;;;;;66.00;38.47;;;;;;;4.18;100.00;98761.25;5067421;28;20695;-57
2022/12/15 02:59:43;;;;;;;63.97;36.83;;;;;;;4.19;100.00;98755.25;5068931;28;20203;-57
2022/12/15 03:02:14;;;;;;;63.83;35.70;;;;;;;4.18;100.00;98762.97;5069397;28;20222;-58
2022/12/15 03:04:44;;;;;;;57.07;34.70;;;;;;;4.16;100.00;98754.47;5069256;28;20192;-56
2022/12/15 03:07:11;;;;;;;61.37;35.63;;;;;;;4.18;100.00;98740.72;5069266;28;20235;-56
2022/12/15 03:09:38;;;;;;;57.77;35.30;;;;;;;4.13;100.00;98755.34;5068990;28;20667;-62
2022/12/15 03:12:05;;;;;;;55.97;34.40;;;;;;;4.06;100.00;98752.91;5069040;28;20207;-62
2022/12/15 03:14:32;;;;;;;60.70;34.57;;;;;;;4.10;100.00;98755.41;5069126;28;20207;-62
2022/12/15 03:16:59;;;;;;;65.53;36.10;;;;;;;4.06;100.00;98751.19;5073273;28;20241;-62
2022/12/15 03:19:28;;;;;;;58.13;34.30;;;;;;;4.08;100.00;98751.16;5072935;28;20203;-63
2022/12/15 03:21:55;;;;;;;65.23;36.03;;;;;;;4.06;100.00;98743.50;5072660;28;20196;-63
2022/12/15 03:24:22;;;;;;;63.90;35.87;;;;;;;4.07;100.00;98758.00;5072730;28;20200;-64
2022/12/15 03:26:49;;;;;;;61.30;34.77;;;;;;;4.09;100.00;98748.56;5072784;28;20196;-63
2022/12/15 03:29:16;;;;;;;61.33;33.87;;;;;;;4.10;100.00;98742.56;5072582;28;20581;-63
2022/12/15 03:31:43;;;;;;;60.33;33.33;;;;;;;4.05;100.00;98754.63;5072501;28;20226;-57
2022/12/15 03:34:10;;;;;;;56.50;32.30;;;;;;;4.05;100.00;98746.94;5072702;28;20211;-62
2022/12/15 03:36:39;;;;;;;57.13;32.23;;;;;;;4.07;100.00;98749.44;5072242;28;20202;-63
2022/12/15 03:39:06;;;;;;;53.27;31.20;;;;;;;4.10;100.00;98752.81;5072541;28;20201;-63
2022/12/15 03:41:33;;;;;;;54.53;31.77;;;;;;;4.10;100.00;98741.72;5072380;28;20668;-64
2022/12/15 03:44:00;;;;;;;52.47;31.80;;;;;;;4.12;100.00;98742.53;5072302;28;20195;-63
2022/12/15 03:46:27;;;;;;;61.60;30.97;;;;;;;4.23;100.00;98738.09;5072256;28;20195;-63
2022/12/15 03:48:54;;;;;;;56.20;31.20;;;;;;;4.37;100.00;98733.59;5071980;28;20208;-64
2022/12/15 03:51:21;;;;;;;50.13;28.77;;;;;;;4.36;100.00;98735.31;5072153;28;20215;-63
2022/12/15 03:53:50;;;;;;;54.27;30.93;;;;;;;4.35;100.00;98722.47;5071973;28;20196;-63
2022/12/15 03:56:18;;;;;;;50.40;29.90;;;;;;;4.50;100.00;98717.09;5071944;28;20207;-63
2022/12/15 03:58:44;;;;;;;50.87;30.07;;;;;;;4.45;100.00;98721.44;5072095;28;20235;-57
2022/12/15 04:01:13;;;;;;;46.10;28.37;;;;;;;4.52;100.00;98722.19;5071917;28;20194;-57
2022/12/15 04:03:40;;;;;;;47.40;28.67;;;;;;;4.59;100.00;98729.78;5071640;28;20200;-57
2022/12/15 04:06:07;;;;;;;49.07;28.93;;;;;;;4.60;100.00;98731.47;5071914;28;20202;-57
2022/12/15 04:08:34;;;;;;;46.57;29.07;;;;;;;4.63;100.00;98715.13;5071579;28;20230;-62
2022/12/15 04:11:02;;;;;;;49.33;28.93;;;;;;;4.65;100.00;98726.22;5052533;28;20706;-62
2022/12/15 04:13:29;;;;;;;47.57;28.10;;;;;;;4.62;100.00;98723.75;5060913;28;20611;-57
2022/12/15 04:15:56;;;;;;;47.50;27.90;;;;;;;4.60;100.00;98716.06;5070674;28;20220;-63
2022/12/15 04:18:23;;;;;;;46.40;27.83;;;;;;;4.63;100.00;98715.13;5071429;28;20313;-57
2022/12/15 04:20:49;;;;;;;48.20;27.97;;;;;;;4.59;100.00;98698.94;5070523;28;20604;-57
2022/12/15 04:23:16;;;;;;;48.37;28.40;;;;;;;4.74;100.00;98711.50;5071173;28;20315;-57
2022/12/15 05:31:54;;;;;;;55.23;31.33;;;;;;;4.85;100.00;98765.31;5069078;28;20234;-63
2022/12/15 05:34:25;;;;;;;56.07;31.67;;;;;;;4.82;100.00;98756.78;5069283;28;20198;-62
2022/12/15 05:36:52;;;;;;;51.87;30.10;;;;;;;4.79;100.00;98775.69;5069586;28;20207;-56
2022/12/15 05:39:20;;;;;;;49.47;30.50;;;;;;;4.78;100.00;98776.56;5068930;28;20203;-57
2022/12/15 05:41:47;;;;;;;52.03;31.33;;;;;;;4.81;100.00;98776.50;5069028;28;20200;-56
2022/12/15 05:44:14;;;;;;;56.70;31.37;;;;;;;4.84;100.00;98794.47;5068376;28;20206;-55
2022/12/15 05:46:41;;;;;;;49.33;30.70;;;;;;;4.96;100.00;98801.13;5068937;28;20211;-56
2022/12/15 05:49:10;;;;;;;53.73;29.77;;;;;;;4.92;100.00;98805.47;5069116;28;20584;-55
2022/12/15 05:51:40;;;;;;;48.27;29.90;;;;;;;4.94;100.00;98797.72;5068707;28;20216;-55
2022/12/15 05:54:07;;;;;;;50.10;30.13;;;;;;;4.91;100.00;98788.31;5068849;28;20269;-55
2022/12/15 05:56:35;;;;;;;53.97;32.07;;;;;;;4.84;100.00;98802.19;5069194;28;20200;-55
2022/12/15 05:59:02;;;;;;;48.90;30.63;;;;;;;4.81;100.00;98791.09;5068819;28;20196;-55
2022/12/15 06:01:30;;;;;;;55.30;30.77;;;;;;;4.87;100.00;98806.41;5068874;28;20590;-63
2022/12/15 06:03:58;;;;;;;57.83;30.83;;;;;;;4.90;100.00;98829.50;5068653;28;20196;-56
2022/12/15 06:06:25;;;;;;;56.87;32.30;;;;;;;4.89;100.00;98836.34;5068866;28;20202;-55
2022/12/15 06:08:53;;;;;;;53.47;31.40;;;;;;;4.90;100.00;98837.19;5068301;28;20246;-56
2022/12/15 06:11:21;;;;;;;55.83;30.80;;;;;;;4.89;100.00;98823.50;5068539;28;20329;-56
2022/12/15 06:13:49;;;;;;;54.33;31.20;;;;;;;4.78;100.00;98822.84;5063345;28;20567;-56
2022/12/15 06:16:17;;;;;;;54.00;30.07;;;;;;;4.73;100.00;98817.78;5066181;28;20199;-56
2022/12/15 06:18:49;;;;;;;55.47;29.97;;;;;;;4.72;100.00;98825.50;5067913;28;20569;-56
2022/12/15 06:21:18;;;;;;;51.77;28.87;;;;;;;4.82;100.00;98826.22;5066161;28;20192;-56
2022/12/15 06:23:46;;;;;;;50.73;29.47;;;;;;;4.86;100.00;98827.84;5068111;28;20201;-55
2022/12/15 06:26:19;;;;;;;48.03;28.10;;;;;;;4.93;100.00;98840.59;5068189;28;20676;-56
2022/12/15 06:28:47;;;;;;;48.47;28.53;;;;;;;4.93;100.00;98844.88;5068062;28;20677;-55
2022/12/15 06:31:14;;;;;;;48.17;28.60;;;;;;;4.80;100.00;98822.81;5068013;28;20717;-55
2022/12/15 06:33:42;;;;;;;50.03;27.90;;;;;;;5.02;100.00;98855.84;5067630;28;20192;-55
2022/12/15 06:36:11;;;;;;;47.87;27.70;;;;;;;5.10;100.00;98851.41;5068111;28;20193;-55
2022/12/15 06:38:38;;;;;;;48.80;27.17;;;;;;;5.22;100.00;98854.66;5068041;28;20205;-55
2022/12/15 06:41:06;;;;;;;46.27;27.50;;;;;;;5.21;100.00;98847.78;5068005;28;20222;-54
2022/12/15 06:43:35;;;;;;;47.90;26.17;;;;;;;5.22;100.00;98849.50;5065502;28;20241;-56
2022/12/15 06:46:02;;;;;;;46.90;26.30;;;;;;;5.41;100.00;98856.03;5067674;28;20672;-55
2022/12/15 06:48:29;;;;;;;48.63;27.80;;;;;;;5.54;100.00;98860.03;5068124;28;20194;-55
2022/12/15 06:50:56;;;;;;;48.13;26.13;;;;;;;5.73;100.00;98857.97;5070419;28;20234;-55
2022/12/15 06:53:24;;;;;;;46.37;27.73;;;;;;;5.91;100.00;98859.34;5072167;28;20676;-55
2022/12/15 06:55:51;;;;;;;44.70;27.10;;;;;;;6.02;100.00;98871.13;5069168;28;20285;-55
2022/12/15 06:58:18;;;;;;;48.93;26.33;;;;;;;6.05;100.00;98865.06;5072116;28;20585;-56
2022/12/15 07:00:46;;;;;;;50.73;27.00;;;;;;;6.14;100.00;98875.19;5071590;28;20578;-56
2022/12/15 07:03:15;;;;;;;42.70;25.53;;;;;;;6.14;100.00;98863.16;5069125;28;20210;-55
2022/12/15 07:05:43;;;;;;;46.93;27.40;;;;;;;6.14;100.00;98862.31;5071180;28;20196;-56
2022/12/15 07:08:11;;;;;;;43.43;26.37;;;;;;;6.18;100.00;98851.06;5071826;28;20240;-56
2022/12/15 07:10:40;;;;;;;45.27;26.10;;;;;;;6.08;100.00;98860.72;5071491;28;20192;-55
2022/12/15 07:13:07;;;;;;;43.03;26.63;;;;;;;6.18;100.00;98857.06;5071297;28;20204;-55
2022/12/15 07:15:34;;;;;;;48.47;25.97;;;;;;;6.14;100.00;98839.09;5071290;28;20196;-56
2022/12/15 07:18:02;;;;;;;44.23;25.23;;;;;;;6.23;100.00;98832.91;5071511;28;20261;-55
2022/12/15 07:20:29;;;;;;;44.93;25.90;;;;;;;6.22;100.00;98877.59;5071414;28;20307;-55
2022/12/15 07:22:56;;;;;;;48.80;26.53;;;;;;;6.32;100.00;98887.66;5071252;28;20586;-55
2022/12/15 07:25:23;;;;;;;46.03;25.80;;;;;;;6.45;100.00;98885.66;5070835;28;20199;-55
2022/12/15 07:27:50;;;;;;;42.67;24.73;;;;;;;6.65;100.00;98877.50;5071319;28;20204;-56
2022/12/15 07:30:17;;;;;;;48.00;24.47;;;;;;;6.82;100.00;98875.34;5071353;28;20196;-56
2022/12/15 07:32:44;;;;;;;42.50;23.43;;;;;;;6.98;100.00;98896.50;5071074;28;20297;-55
2022/12/15 07:35:13;;;;;;;40.00;23.73;;;;;;;7.14;100.00;98908.97;5068411;28;20188;-55
2022/12/15 07:37:40;;;;;;;40.43;22.67;;;;;;;7.24;100.00;98899.25;5070807;28;20694;-62
2022/12/15 07:40:08;;;;;;;42.73;23.13;;;;;;;7.43;100.00;98891.91;5070858;28;20200;-62
2022/12/15 07:42:36;;;;;;;41.30;23.77;;;;;;;7.45;100.00;98890.13;5070958;28;20203;-62
2022/12/15 07:45:04;;;;;;;40.80;23.60;;;;;;;7.62;100.00;98917.19;5071013;28;20196;-62
2022/12/15 07:47:31;;;;;;;39.93;22.73;;;;;;;7.72;100.00;98912.63;5070832;28;20528;-62
2022/12/15 07:49:58;;;;;;;41.87;23.43;;;;;;;7.65;100.00;98911.97;5070932;28;20624;-62
2022/12/15 07:52:26;;;;;;;38.17;21.73;;;;;;;7.84;100.00;98922.63;5071416;28;20675;-63
2022/12/15 07:54:53;;;;;;;36.00;21.93;;;;;;;8.05;100.00;98915.16;5071599;28;20286;-63
2022/12/15 07:57:20;;;;;;;42.40;23.17;;;;;;;8.30;100.00;98898.91;5072296;28;20601;-63
2022/12/15 07:59:47;;;;;;;38.43;21.77;;;;;;;8.44;100.00;98898.53;5071908;28;20191;-63
2022/12/15 08:02:14;;;;;;;37.73;22.63;;;;;;;8.67;100.00;98910.78;5071833;28;20196;-62
2022/12/15 08:04:41;;;;;;;41.83;22.50;;;;;;;8.85;100.00;98904.19;5071750;28;20196;-55
2022/12/15 08:07:09;;;;;;;35.77;20.57;;;;;;;8.94;100.00;98906.47;5071697;28;20255;-55
2022/12/15 08:09:37;;;;;;;35.07;20.77;;;;;;;8.77;100.00;98895.81;5071637;28;20287;-55
2022/12/15 08:12:05;;;;;;;38.80;21.27;;;;;;;8.87;100.00;98910.16;5071709;28;20230;-54
2022/12/15 08:14:33;;;;;;;35.83;20.63;;;;;;;8.84;100.00;98907.66;5072140;28;20589;-55
2022/12/15 08:17:00;;;;;;;37.77;19.57;;;;;;;8.64;100.00;98914.31;5071749;28;20200;-63
2022/12/15 08:19:27;;;;;;;37.37;20.67;;;;;;;8.32;100.00;98911.84;5071714;28;20207;-55
2022/12/15 08:21:54;;;;;;;35.67;19.27;;;;;;;8.24;100.00;98911.19;5071404;28;20287;-62
2022/12/15 08:24:21;;;;;;;44.77;22.07;;;;;;;8.20;100.00;98914.75;5071406;28;20207;-63
2022/12/15 08:26:50;;;;;;;39.27;22.10;;;;;;;8.22;100.00;98911.22;5071716;28;20748;-63
2022/12/15 08:29:17;;;;;;;42.63;23.03;;;;;;;8.17;100.00;98909.66;5071397;28;20196;-63
2022/12/15 08:31:43;;;;;;;42.10;22.17;;;;;;;8.29;100.00;98922.22;5052566;28;20239;-62
2022/12/15 08:34:11;;;;;;;39.73;21.70;;;;;;;8.05;100.00;98902.25;5050998;28;20595;-63
2022/12/15 08:36:38;;;;;;;38.17;20.17;;;;;;;8.11;100.00;98912.44;5050694;28;20698;-56
2022/12/15 08:39:05;;;;;;;31.37;19.47;;;;;;;8.17;100.00;98912.25;5067918;28;20257;-62
2022/12/15 08:41:33;;;;;;;38.37;22.03;;;;;;;8.23;100.00;98925.00;5070625;28;20735;-63
2022/12/15 08:44:02;;;;;;;35.67;20.67;;;;;;;8.26;100.00;98927.47;5070330;28;20227;-63
2022/12/15 08:46:30;;;;;;;33.67;19.13;;;;;;;8.21;100.00;98930.22;5070536;28;20675;-63
2022/12/15 08:48:58;;;;;;;33.80;18.87;;;;;;;8.23;100.00;98932.75;5070912;28;20278;-63
2022/12/15 08:51:27;;;;;;;33.07;18.50;;;;;;;8.20;100.00;98936.28;5071046;28;20224;-62
2022/12/15 08:53:54;;;;;;;31.50;17.80;;;;;;;8.25;100.00;98925.78;5071273;28;20196;-63
2022/12/15 08:56:23;;;;;;;31.73;17.97;;;;;;;8.17;100.00;98923.44;5071321;28;20739;-55
2022/12/15 08:58:51;;;;;;;29.50;18.00;;;;;;;8.17;100.00;98920.84;5070846;28;20204;-63
2022/12/15 09:01:22;;;;;;;31.47;18.00;;;;;;;8.18;100.00;98926.84;5070955;28;20188;-63
2022/12/15 09:03:49;;;;;;;35.87;19.13;;;;;;;8.23;100.00;98914.66;5070754;28;20196;-63
2022/12/15 09:06:18;;;;;;;55.63;29.73;;;;;;;8.38;100.00;98919.41;5057913;28;20673;-62
2022/12/15 09:08:45;;;;;;;52.10;29.43;;;;;;;8.42;100.00;98902.91;5066454;28;20227;-63
2022/12/15 09:11:12;;;;;;;44.83;23.83;;;;;;;8.55;100.00;98914.59;5069441;28;20759;-54
2022/12/15 09:13:40;;;;;;;40.90;22.10;;;;;;;8.59;100.00;98911.00;5068998;28;20230;-64
2022/12/15 09:16:12;;;;;;;37.67;21.53;;;;;;;8.65;100.00;98920.31;5069792;28;20222;-63
2022/12/15 09:18:42;;;;;;;34.40;18.70;;;;;;;8.55;100.00;98922.34;5069665;28;20707;-63
2022/12/15 09:21:10;;;;;;;35.53;19.13;;;;;;;8.60;100.00;98915.28;5069113;28;20224;-62
2022/12/15 09:23:37;;;;;;;48.63;23.20;;;;;;;8.69;100.00;98920.16;5069576;28;20220;-63
2022/12/15 09:26:06;;;;;;;39.70;21.63;;;;;;;8.70;100.00;98921.00;5069864;28;20219;-61
2022/12/15 09:28:33;;;;;;;44.43;24.30;;;;;;;8.66;100.00;98925.47;5069812;28;20223;-55
2022/12/15 09:31:03;;;;;;;38.00;21.93;;;;;;;8.75;100.00;98916.56;5068923;28;20220;-55
2022/12/15 09:33:30;;;;;;;38.27;22.53;;;;;;;8.70;100.00;98916.69;5068220;28;20232;-62
2022/12/15 09:35:58;;;;;;;34.80;19.73;;;;;;;8.64;100.00;98900.53;5065854;28;20224;-55
2022/12/15 09:38:26;;;;;;;34.53;18.27;;;;;;;8.58;100.00;98908.44;5069641;28;20221;-54
2022/12/15 09:40:53;;;;;;;28.77;17.00;;;;;;;8.56;100.00;98912.84;5068082;28;20196;-54
2022/12/15 09:43:23;;;;;;;37.30;22.17;;;;;;;8.59;100.00;98921.34;5057170;28;20221;-61
2022/12/15 09:45:56;;;;;;;37.03;23.80;;;;;;;8.69;100.00;98916.75;5048319;28;20216;-54
2022/12/15 09:48:30;;;;;;;40.03;23.33;;;;;;;8.83;100.00;98921.47;5049004;28;20603;-55
2022/12/15 09:50:58;;;;;;;33.07;18.33;;;;;;;8.83;100.00;98919.75;5048858;28;20306;-64
2022/12/15 09:53:26;;;;;;;32.60;19.43;;;;;;;8.96;100.00;98921.06;5048636;28;20228;-62
2022/12/15 09:55:59;;;;;;;27.40;18.83;;;;;;;9.04;100.00;98925.97;5060877;28;20227;-55
2022/12/15 09:58:40;;;;;;;27.93;16.60;;;;;;;9.09;100.00;98924.94;5068520;28;20220;-55
2022/12/15 10:01:18;;;;;;;34.60;21.47;;;;;;;9.22;100.00;98924.56;5068547;28;20726;-55
2022/12/15 10:03:55;;;;;;;40.93;25.10;;;;;;;9.25;100.00;98933.09;5068425;28;20229;-55
2022/12/15 10:06:28;;;;;;;35.97;22.43;;;;;;;9.28;100.00;98914.84;5068371;28;20613;-55
2022/12/15 10:08:58;;;;;;;32.70;19.53;;;;;;;9.05;100.00;98912.16;5068455;28;20649;-56
2022/12/15 10:11:40;;;;;;;26.20;17.13;;;;;;;9.19;100.00;98915.13;5066065;28;20222;-57
2022/12/15 10:14:16;;;;;;;29.63;17.87;;;;;;;9.25;100.00;98929.66;5066794;28;20220;-56
2022/12/15 10:16:53;;;;;;;28.57;19.00;;;;;;;9.28;100.00;98930.38;5066821;28;21417;-56
2022/12/15 10:19:29;;;;;;;25.70;17.70;;;;;;;9.35;100.00;98924.09;5066565;28;20219;-54
2022/12/15 10:21:58;;;;;;;25.63;16.37;;;;;;;9.38;100.00;98921.41;5065692;28;20215;-55
2022/12/15 10:24:29;;;;;;;20.87;13.70;;;;;;;9.40;100.00;98909.25;5065964;28;20206;-56
2022/12/15 10:27:06;;;;;;;23.40;14.53;;;;;;;9.41;100.00;98912.69;5067347;28;20210;-55
2022/12/15 10:29:41;;;;;;;19.33;13.17;;;;;;;9.38;100.00;98921.41;5066046;28;20196;-56
2022/12/15 10:32:17;;;;;;;20.70;13.73;;;;;;;9.41;100.00;98910.94;5068227;28;20211;-55
2022/12/15 10:34:44;;;;;;;19.43;13.83;;;;;;;9.48;100.00;98895.22;5068014;28;20643;-63
2022/12/15 10:37:17;;;;;;;23.00;14.33;;;;;;;9.48;100.00;98905.56;5066960;28;20192;-63
2022/12/15 10:39:46;;;;;;;21.87;14.13;;;;;;;9.52;100.00;98894.19;5067733;28;20199;-62
2022/12/15 10:42:19;;;;;;;24.10;16.30;;;;;;;9.51;100.00;98903.69;5067920;28;20200;-63
2022/12/15 10:44:48;;;;;;;24.70;15.10;;;;;;;9.51;100.00;98898.53;5068070;28;20199;-60
2022/12/15 10:47:23;;;;;;;22.67;14.50;;;;;;;9.51;100.00;98897.66;5067320;28;20195;-62
2022/12/15 10:49:50;;;;;;;23.63;14.97;;;;;;;9.45;100.00;98897.00;5066810;28;20651;-61
2022/12/15 10:52:31;;;;;;;26.93;16.30;;;;;;;9.59;100.00;98898.28;5067728;28;20212;-63
2022/12/15 10:54:58;;;;;;;24.87;16.17;;;;;;;9.72;100.00;98909.88;5066030;28;20222;-63
2022/12/15 10:57:29;;;;;;;30.30;17.00;;;;;;;9.77;100.00;98913.16;5067821;28;20192;-62
2022/12/15 11:00:02;;;;;;;25.80;16.73;;;;;;;9.83;100.00;98918.13;5067712;28;20290;-63
2022/12/15 11:02:32;;;;;;;27.70;16.63;;;;;;;9.92;100.00;98922.16;5067562;28;20610;-63
2022/12/15 11:05:02;;;;;;;28.13;16.37;;;;;;;9.90;100.00;98913.59;5067912;28;20590;-63
2022/12/15 11:07:36;;;;;;;24.77;15.23;;;;;;;10.02;100.00;98918.34;5064269;28;20274;-61
2022/12/15 11:10:16;;;;;;;29.43;16.20;;;;;;;10.03;100.00;98923.47;5067222;28;20204;-63
2022/12/15 11:12:51;;;;;;;26.23;15.80;;;;;;;10.08;100.00;98921.53;5066145;28;20594;-63
2022/12/15 11:15:39;;;;;;;25.90;17.17;;;;;;;10.03;100.00;98917.44;5066132;28;20706;-62
2022/12/15 11:18:32;;;;;;;29.53;19.33;;;;;;;10.14;100.00;98928.25;5067167;28;20202;-61
2022/12/15 11:21:03;;;;;;;30.67;18.90;;;;;;;10.17;100.00;98936.75;5066022;28;20192;-62
2022/12/15 11:23:45;;;;;;;38.47;19.23;;;;;;;10.21;100.00;98931.50;5064727;28;20196;-56
2022/12/15 11:26:22;;;;;;;23.00;15.23;;;;;;;10.26;100.00;98934.78;5065332;28;20196;-62
2022/12/15 11:28:56;;;;;;;28.90;15.40;;;;;;;10.32;100.00;98942.31;5064747;28;20204;-55
2022/12/15 11:31:27;;;;;;;27.67;17.43;;;;;;;10.36;100.00;98936.13;5067456;28;20196;-55
2022/12/15 11:33:54;;;;;;;26.80;17.07;;;;;;;10.43;100.00;98929.81;5065199;28;20224;-56
2022/12/15 11:36:42;;;;;;;28.90;18.00;;;;;;;10.46;100.00;98929.69;5068712;28;20196;-56
2022/12/15 11:39:21;;;;;;;24.43;15.53;;;;;;;10.53;100.00;98929.41;5068334;28;20286;-55
2022/12/15 11:41:57;;;;;;;30.93;17.57;;;;;;;10.62;100.00;98929.94;5068136;28;20207;-55
2022/12/15 11:44:27;;;;;;;25.03;16.13;;;;;;;10.60;100.00;98917.06;5070478;28;20746;-55
2022/12/15 11:47:12;;;;;;;25.17;16.13;;;;;;;10.63;100.00;98924.69;5067385;28;20200;-56
2022/12/15 11:50:26;;;;;;;27.43;17.27;;;;;;;10.52;100.00;98929.44;5069381;28;20722;-56
2022/12/15 11:53:30;;;;;;;30.13;18.63;;;;;;;10.80;100.00;98943.06;5069570;28;20691;-55
2022/12/15 11:56:08;;;;;;;38.23;21.10;;;;;;;10.84;100.00;98942.03;5018664;28;20206;-55
2022/12/15 11:59:04;;;;;;;30.70;18.73;;;;;;;10.93;100.00;98930.47;5067433;28;20200;-55
2022/12/15 12:01:50;;;;;;;30.23;20.07;;;;;;;11.13;100.00;98946.09;5049232;28;20192;-55
2022/12/15 12:04:22;;;;;;;23.60;16.37;;;;;;;11.10;100.00;98941.00;5069368;28;20194;-55
2022/12/15 12:07:01;;;;;;;26.93;16.73;;;;;;;11.28;100.00;98936.84;5068631;28;20204;-57
2022/12/15 12:09:32;;;;;;;29.23;18.23;;;;;;;11.35;100.00;98940.88;5069163;28;20196;-55
2022/12/15 12:12:16;;;;;;;30.67;18.03;;;;;;;11.39;100.00;98939.84;5069039;28;20206;-57
2022/12/15 12:14:51;;;;;;;29.27;18.23;;;;;;;11.47;100.00;98950.75;5069051;28;20204;-56
2022/12/15 12:17:33;;;;;;;26.00;16.23;;;;;;;11.52;100.00;98946.19;5068648;28;20192;-55
2022/12/15 12:20:04;;;;;;;29.03;17.00;;;;;;;11.68;100.00;98948.16;5067939;28;20215;-56
2022/12/15 12:22:36;;;;;;;27.60;16.63;;;;;;;11.62;100.00;98929.31;5069331;28;20223;-62
2022/12/15 12:25:10;;;;;;;28.33;18.27;;;;;;;11.70;100.00;98948.94;5069588;28;20196;-62
2022/12/15 12:27:45;;;;;;;33.70;20.90;;;;;;;11.78;100.00;98950.34;5069171;28;20612;-62
2022/12/15 12:30:15;;;;;;;40.97;25.87;;;;;;;11.77;100.00;98953.84;5068248;28;20191;-62
2022/12/15 12:32:56;;;;;;;25.00;17.90;;;;;;;11.81;100.00;98958.03;5069857;28;20709;-62
2022/12/15 12:35:29;;;;;;;30.63;19.20;;;;;;;11.82;100.00;98959.72;5069038;28;20196;-62
2022/12/15 12:38:00;;;;;;;34.43;17.87;;;;;;;11.75;100.00;98953.06;5068876;28;20200;-61
2022/12/15 12:40:36;;;;;;;29.73;17.03;;;;;;;11.79;100.00;98965.03;5069384;28;20219;-62
2022/12/15 12:43:05;;;;;;;29.47;17.27;;;;;;;11.81;100.00;98968.41;5069134;28;20192;-61
2022/12/15 12:45:40;;;;;;;32.33;16.87;;;;;;;11.80;100.00;98965.88;5067997;28;20232;-61
2022/12/15 12:48:14;;;;;;;27.23;14.97;;;;;;;11.62;100.00;98960.50;5068453;28;20271;-62
2022/12/15 12:50:41;;;;;;;27.93;16.80;;;;;;;11.65;100.00;98975.97;5068471;28;20195;-62
2022/12/15 12:53:25;;;;;;;28.10;16.37;;;;;;;11.78;100.00;98972.91;5068910;28;20216;-63
2022/12/15 12:55:52;;;;;;;31.47;17.07;;;;;;;11.84;100.00;98978.69;5068278;28;20196;-62
2022/12/15 12:58:38;;;;;;;31.10;17.43;;;;;;;11.73;100.00;98980.88;5068287;28;20203;-62
2022/12/15 13:01:19;;;;;;;31.50;16.97;;;;;;;11.73;100.00;98985.22;5068010;28;20748;-62
2022/12/15 13:03:47;;;;;;;30.73;16.93;;;;;;;11.74;100.00;98986.91;5068290;28;20219;-62
2022/12/15 13:06:22;;;;;;;32.17;17.57;;;;;;;11.72;100.00;98986.13;5068500;28;20686;-62
2022/12/15 13:08:54;;;;;;;36.03;17.07;;;;;;;11.67;100.00;98990.66;5066260;28;20231;-62
2022/12/15 13:11:57;;;;;;;29.77;17.20;;;;;;;11.65;100.00;98982.94;5068245;28;20192;-63
2022/12/15 13:14:43;;;;;;;29.73;17.77;;;;;;;11.68;100.00;98990.59;5069046;28;20734;-62
2022/12/15 13:17:22;;;;;;;29.37;16.17;;;;;;;11.74;100.00;99011.13;5066632;28;20283;-61
2022/12/15 13:20:21;;;;;;;28.57;16.80;;;;;;;11.78;100.00;99024.91;5066352;28;20196;-54
2022/12/15 13:22:49;;;;;;;35.50;18.80;;;;;;;11.78;100.00;99025.75;4998365;28;20202;-63
2022/12/15 13:25:38;;;;;;;30.37;18.37;;;;;;;11.76;100.00;99022.34;5053963;28;20210;-62
2022/12/15 13:28:41;;;;;;;38.67;17.57;;;;;;;11.72;100.00;99031.19;5068521;28;20197;-56
2022/12/15 13:31:32;;;;;;;30.23;16.50;;;;;;;11.72;100.00;99025.97;5069002;28;20195;-62
2022/12/15 13:34:12;;;;;;;35.27;17.43;;;;;;;11.65;100.00;99033.16;5067379;28;20226;-55
2022/12/15 13:36:52;;;;;;;33.53;17.60;;;;;;;11.40;100.00;99029.84;5067082;28;20203;-55
2022/12/15 13:39:55;;;;;;;25.80;16.17;;;;;;;11.42;100.00;99027.19;5067212;28;20198;-55
2022/12/15 13:42:44;;;;;;;32.07;16.80;;;;;;;11.59;100.00;99012.63;5063758;28;20223;-55
2022/12/15 13:45:34;;;;;;;30.43;17.03;;;;;;;11.73;100.00;99032.88;5061906;28;20219;-55
2022/12/15 13:48:21;;;;;;;28.83;16.87;;;;;;;11.70;100.00;99042.53;5065774;28;20222;-54
2022/12/15 13:50:56;;;;;;;37.20;18.90;;;;;;;11.69;100.00;99044.28;5063304;28;20222;-54